sensor_id;sensor_type;location;lat;lon;timestamp;temperature;humidity
2647;DHT22;1333;50.958;6.770;2023-01-09T00:01:33;7.50;99.90
2647;DHT22;1333;50.958;6.770;2023-01-09T00:04:00;7.40;99.90
2647;DHT22;1333;50.958;6.770;2023-01-09T00:06:25;7.40;99.90
2647;DHT22;1333;50.958;6.770;2023-01-09T00:08:51;7.40;99.90
2647;DHT22;1333;50.958;6.770;2023-01-09T00:11:17;7.40;99.90
2647;DHT22;1333;50.958;6.770;2023-01-09T00:13:42;7.30;99.90
2647;DHT22;1333;50.958;6.770;2023-01-09T00:16:08;7.30;99.90
2647;DHT22;1333;50.958;6.770;2023-01-09T00:18:35;7.30;99.90
2647;DHT22;1333;50.958;6.770;2023-01-09T00:21:02;7.30;99.90
2647;DHT22;1333;50.958;6.770;2023-01-09T00:23:28;7.30;99.90
2647;DHT22;1333;50.958;6.770;2023-01-09T00:26:10;7.20;99.90
2647;DHT22;1333;50.958;6.770;2023-01-09T00:28:36;7.20;99.90
2647;DHT22;1333;50.958;6.770;2023-01-09T00:31:04;7.00;99.90
2647;DHT22;1333;50.958;6.770;2023-01-09T00:33:54;7.10;99.90
2647;DHT22;1333;50.958;6.770;2023-01-09T00:36:20;7.10;99.90
2647;DHT22;1333;50.958;6.770;2023-01-09T00:38:46;7.00;99.90
2647;DHT22;1333;50.958;6.770;2023-01-09T00:41:23;7.00;99.90
2647;DHT22;1333;50.958;6.770;2023-01-09T00:54:04;6.90;99.90
2647;DHT22;1333;50.958;6.770;2023-01-09T00:56:30;7.00;99.90
2647;DHT22;1333;50.958;6.770;2023-01-09T01:02:18;6.90;99.90
2647;DHT22;1333;50.958;6.770;2023-01-09T01:04:44;6.90;99.90
2647;DHT22;1333;50.958;6.770;2023-01-09T01:07:28;6.80;99.90
2647;DHT22;1333;50.958;6.770;2023-01-09T01:10:12;6.80;99.90
2647;DHT22;1333;50.958;6.770;2023-01-09T01:33:40;6.70;99.90
2647;DHT22;1333;50.958;6.770;2023-01-09T01:36:55;6.70;99.90
2647;DHT22;1333;50.958;6.770;2023-01-09T01:39:20;6.70;99.90
2647;DHT22;1333;50.958;6.770;2023-01-09T01:41:46;6.70;99.90
2647;DHT22;1333;50.958;6.770;2023-01-09T01:47:16;6.90;99.90
2647;DHT22;1333;50.958;6.770;2023-01-09T01:49:43;6.90;99.90
2647;DHT22;1333;50.958;6.770;2023-01-09T01:52:09;6.90;99.90
2647;DHT22;1333;50.958;6.770;2023-01-09T01:54:34;6.90;99.90
2647;DHT22;1333;50.958;6.770;2023-01-09T01:57:02;6.90;99.90
2647;DHT22;1333;50.958;6.770;2023-01-09T01:59:45;6.80;99.90
2647;DHT22;1333;50.958;6.770;2023-01-09T02:02:17;6.80;99.90
2647;DHT22;1333;50.958;6.770;2023-01-09T02:04:45;6.80;99.90
2647;DHT22;1333;50.958;6.770;2023-01-09T02:07:11;6.80;99.90
2647;DHT22;1333;50.958;6.770;2023-01-09T02:09:38;6.80;99.90
2647;DHT22;1333;50.958;6.770;2023-01-09T02:12:20;6.80;99.90
2647;DHT22;1333;50.958;6.770;2023-01-09T02:14:56;6.90;99.90
2647;DHT22;1333;50.958;6.770;2023-01-09T02:18:04;6.90;99.90
2647;DHT22;1333;50.958;6.770;2023-01-09T02:24:07;6.90;99.90
2647;DHT22;1333;50.958;6.770;2023-01-09T02:27:12;6.90;99.90
2647;DHT22;1333;50.958;6.770;2023-01-09T02:29:44;6.90;99.90
2647;DHT22;1333;50.958;6.770;2023-01-09T02:32:16;6.80;99.90
2647;DHT22;1333;50.958;6.770;2023-01-09T02:34:57;6.90;99.90
2647;DHT22;1333;50.958;6.770;2023-01-09T02:37:42;7.00;99.90
2647;DHT22;1333;50.958;6.770;2023-01-09T02:40:38;7.00;99.90
2647;DHT22;1333;50.958;6.770;2023-01-09T02:43:06;7.00;99.90
2647;DHT22;1333;50.958;6.770;2023-01-09T02:45:32;7.10;99.90
2647;DHT22;1333;50.958;6.770;2023-01-09T02:47:58;7.20;99.90
2647;DHT22;1333;50.958;6.770;2023-01-09T02:50:30;7.10;99.90
2647;DHT22;1333;50.958;6.770;2023-01-09T02:53:02;7.20;99.90
2647;DHT22;1333;50.958;6.770;2023-01-09T03:01:40;7.40;99.90
2647;DHT22;1333;50.958;6.770;2023-01-09T03:07:34;7.50;99.90
2647;DHT22;1333;50.958;6.770;2023-01-09T03:10:18;7.60;99.90
2647;DHT22;1333;50.958;6.770;2023-01-09T03:12:46;7.50;99.90
2647;DHT22;1333;50.958;6.770;2023-01-09T03:15:14;7.40;99.90
2647;DHT22;1333;50.958;6.770;2023-01-09T03:17:44;7.10;99.90
2647;DHT22;1333;50.958;6.770;2023-01-09T03:20:12;7.10;99.90
2647;DHT22;1333;50.958;6.770;2023-01-09T03:22:52;7.00;99.90
2647;DHT22;1333;50.958;6.770;2023-01-09T03:25:18;6.90;99.90
2647;DHT22;1333;50.958;6.770;2023-01-09T03:27:43;6.90;99.90
2647;DHT22;1333;50.958;6.770;2023-01-09T03:30:09;6.80;99.90
2647;DHT22;1333;50.958;6.770;2023-01-09T03:32:35;6.70;99.90
2647;DHT22;1333;50.958;6.770;2023-01-09T03:35:00;6.60;99.90
2647;DHT22;1333;50.958;6.770;2023-01-09T03:37:26;6.50;99.90
2647;DHT22;1333;50.958;6.770;2023-01-09T03:39:52;6.50;99.90
2647;DHT22;1333;50.958;6.770;2023-01-09T03:42:17;6.50;99.90
2647;DHT22;1333;50.958;6.770;2023-01-09T03:44:43;6.40;99.90
2647;DHT22;1333;50.958;6.770;2023-01-09T03:47:08;6.30;99.90
2647;DHT22;1333;50.958;6.770;2023-01-09T03:49:34;6.20;99.90
2647;DHT22;1333;50.958;6.770;2023-01-09T03:51:59;6.30;99.90
2647;DHT22;1333;50.958;6.770;2023-01-09T03:54:25;6.30;99.90
2647;DHT22;1333;50.958;6.770;2023-01-09T03:56:50;6.20;99.90
2647;DHT22;1333;50.958;6.770;2023-01-09T03:59:16;6.20;99.90
2647;DHT22;1333;50.958;6.770;2023-01-09T04:01:41;6.10;99.90
2647;DHT22;1333;50.958;6.770;2023-01-09T04:04:07;6.10;99.90
2647;DHT22;1333;50.958;6.770;2023-01-09T04:06:32;6.00;99.90
2647;DHT22;1333;50.958;6.770;2023-01-09T04:08:58;6.00;99.90
2647;DHT22;1333;50.958;6.770;2023-01-09T04:11:23;5.90;99.90
2647;DHT22;1333;50.958;6.770;2023-01-09T04:13:49;5.90;99.90
2647;DHT22;1333;50.958;6.770;2023-01-09T04:16:14;5.80;99.90
2647;DHT22;1333;50.958;6.770;2023-01-09T04:18:40;5.80;99.90
2647;DHT22;1333;50.958;6.770;2023-01-09T04:21:05;5.70;99.90
2647;DHT22;1333;50.958;6.770;2023-01-09T04:23:31;5.70;99.90
2647;DHT22;1333;50.958;6.770;2023-01-09T04:25:56;5.70;99.90
2647;DHT22;1333;50.958;6.770;2023-01-09T04:28:22;5.60;99.90
2647;DHT22;1333;50.958;6.770;2023-01-09T04:30:47;5.60;99.90
2647;DHT22;1333;50.958;6.770;2023-01-09T04:33:13;5.60;99.90
2647;DHT22;1333;50.958;6.770;2023-01-09T04:35:39;5.60;99.90
2647;DHT22;1333;50.958;6.770;2023-01-09T04:38:04;5.60;99.90
2647;DHT22;1333;50.958;6.770;2023-01-09T04:40:30;5.70;99.90
2647;DHT22;1333;50.958;6.770;2023-01-09T04:42:55;5.80;99.90
2647;DHT22;1333;50.958;6.770;2023-01-09T04:45:21;5.90;99.90
2647;DHT22;1333;50.958;6.770;2023-01-09T04:47:46;6.00;99.90
2647;DHT22;1333;50.958;6.770;2023-01-09T04:50:13;6.20;99.90
2647;DHT22;1333;50.958;6.770;2023-01-09T04:52:39;6.20;99.90
2647;DHT22;1333;50.958;6.770;2023-01-09T04:55:05;6.30;99.90
2647;DHT22;1333;50.958;6.770;2023-01-09T04:57:32;6.50;99.90
2647;DHT22;1333;50.958;6.770;2023-01-09T04:59:57;6.50;99.90
2647;DHT22;1333;50.958;6.770;2023-01-09T05:02:23;6.60;99.90
2647;DHT22;1333;50.958;6.770;2023-01-09T05:04:48;6.60;99.90
2647;DHT22;1333;50.958;6.770;2023-01-09T05:07:14;6.80;99.90
2647;DHT22;1333;50.958;6.770;2023-01-09T05:09:39;6.80;99.90
2647;DHT22;1333;50.958;6.770;2023-01-09T05:12:05;6.80;99.90
2647;DHT22;1333;50.958;6.770;2023-01-09T05:14:31;6.90;99.90
2647;DHT22;1333;50.958;6.770;2023-01-09T05:16:56;7.00;99.90
2647;DHT22;1333;50.958;6.770;2023-01-09T05:19:22;7.00;99.90
2647;DHT22;1333;50.958;6.770;2023-01-09T05:21:48;7.00;99.90
2647;DHT22;1333;50.958;6.770;2023-01-09T05:24:13;7.00;99.90
2647;DHT22;1333;50.958;6.770;2023-01-09T05:26:39;7.10;99.90
2647;DHT22;1333;50.958;6.770;2023-01-09T05:29:04;7.20;99.90
2647;DHT22;1333;50.958;6.770;2023-01-09T05:31:30;7.20;99.90
2647;DHT22;1333;50.958;6.770;2023-01-09T05:33:55;7.30;99.90
2647;DHT22;1333;50.958;6.770;2023-01-09T05:36:23;7.40;99.90
2647;DHT22;1333;50.958;6.770;2023-01-09T05:38:49;7.30;99.90
2647;DHT22;1333;50.958;6.770;2023-01-09T05:41:14;7.40;99.90
2647;DHT22;1333;50.958;6.770;2023-01-09T05:43:40;7.30;99.90
2647;DHT22;1333;50.958;6.770;2023-01-09T05:46:05;7.30;99.90
2647;DHT22;1333;50.958;6.770;2023-01-09T05:48:31;7.30;99.90
2647;DHT22;1333;50.958;6.770;2023-01-09T05:50:56;7.40;99.90
2647;DHT22;1333;50.958;6.770;2023-01-09T05:53:22;7.40;99.90
2647;DHT22;1333;50.958;6.770;2023-01-09T05:55:47;7.40;99.90
2647;DHT22;1333;50.958;6.770;2023-01-09T05:58:13;7.40;99.90
2647;DHT22;1333;50.958;6.770;2023-01-09T06:00:38;7.30;99.90
2647;DHT22;1333;50.958;6.770;2023-01-09T06:03:04;7.40;99.90
2647;DHT22;1333;50.958;6.770;2023-01-09T06:05:29;7.30;99.90
2647;DHT22;1333;50.958;6.770;2023-01-09T06:07:55;7.40;99.90
2647;DHT22;1333;50.958;6.770;2023-01-09T06:10:20;7.40;99.90
2647;DHT22;1333;50.958;6.770;2023-01-09T06:12:47;7.50;99.90
2647;DHT22;1333;50.958;6.770;2023-01-09T06:15:13;7.50;99.90
2647;DHT22;1333;50.958;6.770;2023-01-09T06:17:42;7.50;99.90
2647;DHT22;1333;50.958;6.770;2023-01-09T06:20:08;7.50;99.90
2647;DHT22;1333;50.958;6.770;2023-01-09T06:22:34;7.50;99.90
2647;DHT22;1333;50.958;6.770;2023-01-09T06:24:59;7.60;99.90
2647;DHT22;1333;50.958;6.770;2023-01-09T06:27:25;7.50;99.90
2647;DHT22;1333;50.958;6.770;2023-01-09T06:29:51;7.50;99.90
2647;DHT22;1333;50.958;6.770;2023-01-09T06:32:16;7.50;99.90
2647;DHT22;1333;50.958;6.770;2023-01-09T06:34:42;7.60;99.90
2647;DHT22;1333;50.958;6.770;2023-01-09T06:37:07;7.60;99.90
2647;DHT22;1333;50.958;6.770;2023-01-09T06:39:33;7.50;99.90
2647;DHT22;1333;50.958;6.770;2023-01-09T06:41:58;7.60;99.90
2647;DHT22;1333;50.958;6.770;2023-01-09T06:44:24;7.50;99.90
2647;DHT22;1333;50.958;6.770;2023-01-09T06:46:49;7.50;99.90
2647;DHT22;1333;50.958;6.770;2023-01-09T06:49:15;7.50;99.90
2647;DHT22;1333;50.958;6.770;2023-01-09T06:51:42;7.60;99.90
2647;DHT22;1333;50.958;6.770;2023-01-09T06:54:07;7.60;99.90
2647;DHT22;1333;50.958;6.770;2023-01-09T06:56:33;7.60;99.90
2647;DHT22;1333;50.958;6.770;2023-01-09T06:58:58;7.60;99.90
2647;DHT22;1333;50.958;6.770;2023-01-09T07:01:25;7.70;99.90
2647;DHT22;1333;50.958;6.770;2023-01-09T07:03:51;7.70;99.90
2647;DHT22;1333;50.958;6.770;2023-01-09T07:06:16;7.70;99.90
2647;DHT22;1333;50.958;6.770;2023-01-09T07:08:42;7.70;99.90
2647;DHT22;1333;50.958;6.770;2023-01-09T07:11:08;7.70;99.90
2647;DHT22;1333;50.958;6.770;2023-01-09T07:13:33;7.70;99.90
2647;DHT22;1333;50.958;6.770;2023-01-09T07:15:59;7.80;99.90
2647;DHT22;1333;50.958;6.770;2023-01-09T07:18:27;7.90;99.90
2647;DHT22;1333;50.958;6.770;2023-01-09T07:20:52;7.90;99.90
2647;DHT22;1333;50.958;6.770;2023-01-09T07:23:18;7.90;99.90
2647;DHT22;1333;50.958;6.770;2023-01-09T07:25:44;7.90;99.90
2647;DHT22;1333;50.958;6.770;2023-01-09T07:28:10;7.90;99.90
2647;DHT22;1333;50.958;6.770;2023-01-09T07:30:35;7.90;99.90
2647;DHT22;1333;50.958;6.770;2023-01-09T07:33:01;7.90;99.90
2647;DHT22;1333;50.958;6.770;2023-01-09T07:35:26;7.90;99.90
2647;DHT22;1333;50.958;6.770;2023-01-09T07:37:52;7.90;99.90
2647;DHT22;1333;50.958;6.770;2023-01-09T07:40:18;7.90;99.90
2647;DHT22;1333;50.958;6.770;2023-01-09T07:42:43;7.80;99.90
2647;DHT22;1333;50.958;6.770;2023-01-09T07:45:09;8.00;99.90
2647;DHT22;1333;50.958;6.770;2023-01-09T07:47:35;8.00;99.90
2647;DHT22;1333;50.958;6.770;2023-01-09T07:50:00;8.00;99.90
2647;DHT22;1333;50.958;6.770;2023-01-09T07:52:26;8.00;99.90
2647;DHT22;1333;50.958;6.770;2023-01-09T07:54:52;7.90;99.90
2647;DHT22;1333;50.958;6.770;2023-01-09T07:57:18;8.00;99.90
2647;DHT22;1333;50.958;6.770;2023-01-09T07:59:43;8.00;99.90
2647;DHT22;1333;50.958;6.770;2023-01-09T08:02:09;8.00;99.90
2647;DHT22;1333;50.958;6.770;2023-01-09T08:04:34;8.10;99.90
2647;DHT22;1333;50.958;6.770;2023-01-09T08:07:00;8.10;99.90
2647;DHT22;1333;50.958;6.770;2023-01-09T08:09:27;8.10;99.90
2647;DHT22;1333;50.958;6.770;2023-01-09T08:11:53;8.10;99.90
2647;DHT22;1333;50.958;6.770;2023-01-09T08:14:18;8.20;99.90
2647;DHT22;1333;50.958;6.770;2023-01-09T08:16:44;8.20;99.90
2647;DHT22;1333;50.958;6.770;2023-01-09T08:19:10;8.20;99.90
2647;DHT22;1333;50.958;6.770;2023-01-09T08:21:37;8.20;99.90
2647;DHT22;1333;50.958;6.770;2023-01-09T08:24:03;8.10;99.90
2647;DHT22;1333;50.958;6.770;2023-01-09T08:26:28;8.10;99.90
2647;DHT22;1333;50.958;6.770;2023-01-09T08:28:54;8.10;99.90
2647;DHT22;1333;50.958;6.770;2023-01-09T08:31:19;8.20;99.90
2647;DHT22;1333;50.958;6.770;2023-01-09T08:33:45;8.20;99.90
2647;DHT22;1333;50.958;6.770;2023-01-09T08:36:11;8.20;99.90
2647;DHT22;1333;50.958;6.770;2023-01-09T08:38:36;8.20;99.90
2647;DHT22;1333;50.958;6.770;2023-01-09T08:41:02;8.10;99.90
2647;DHT22;1333;50.958;6.770;2023-01-09T08:43:50;8.20;99.90
2647;DHT22;1333;50.958;6.770;2023-01-09T08:46:34;8.30;99.90
2647;DHT22;1333;50.958;6.770;2023-01-09T08:49:18;8.30;99.90
2647;DHT22;1333;50.958;6.770;2023-01-09T08:51:44;8.20;99.90
2647;DHT22;1333;50.958;6.770;2023-01-09T08:54:09;8.20;99.90
2647;DHT22;1333;50.958;6.770;2023-01-09T08:56:35;8.30;99.90
2647;DHT22;1333;50.958;6.770;2023-01-09T08:59:00;8.20;99.90
2647;DHT22;1333;50.958;6.770;2023-01-09T09:01:26;8.30;99.90
2647;DHT22;1333;50.958;6.770;2023-01-09T09:03:51;8.30;99.90
2647;DHT22;1333;50.958;6.770;2023-01-09T09:06:17;8.30;99.90
2647;DHT22;1333;50.958;6.770;2023-01-09T09:08:43;8.40;99.90
2647;DHT22;1333;50.958;6.770;2023-01-09T09:11:08;8.30;99.90
2647;DHT22;1333;50.958;6.770;2023-01-09T09:13:34;8.40;99.90
2647;DHT22;1333;50.958;6.770;2023-01-09T09:15:59;8.40;99.90
2647;DHT22;1333;50.958;6.770;2023-01-09T09:18:25;8.50;99.90
2647;DHT22;1333;50.958;6.770;2023-01-09T09:20:50;8.50;99.90
2647;DHT22;1333;50.958;6.770;2023-01-09T09:23:16;8.50;99.90
2647;DHT22;1333;50.958;6.770;2023-01-09T09:25:41;8.50;99.90
2647;DHT22;1333;50.958;6.770;2023-01-09T09:28:08;8.40;99.90
2647;DHT22;1333;50.958;6.770;2023-01-09T09:30:34;8.50;99.90
2647;DHT22;1333;50.958;6.770;2023-01-09T09:33:02;8.40;99.90
2647;DHT22;1333;50.958;6.770;2023-01-09T09:35:28;8.40;99.90
2647;DHT22;1333;50.958;6.770;2023-01-09T09:37:58;8.50;99.90
2647;DHT22;1333;50.958;6.770;2023-01-09T09:40:47;8.60;99.90
2647;DHT22;1333;50.958;6.770;2023-01-09T09:46:53;8.70;99.90
2647;DHT22;1333;50.958;6.770;2023-01-09T09:49:27;8.80;99.90
2647;DHT22;1333;50.958;6.770;2023-01-09T09:54:37;9.00;99.90
2647;DHT22;1333;50.958;6.770;2023-01-09T09:57:05;9.10;99.90
2647;DHT22;1333;50.958;6.770;2023-01-09T09:59:37;9.10;99.90
2647;DHT22;1333;50.958;6.770;2023-01-09T10:02:29;9.10;99.90
2647;DHT22;1333;50.958;6.770;2023-01-09T10:05:14;9.20;99.90
2647;DHT22;1333;50.958;6.770;2023-01-09T10:07:47;9.30;99.90
2647;DHT22;1333;50.958;6.770;2023-01-09T10:10:18;9.40;99.90
2647;DHT22;1333;50.958;6.770;2023-01-09T10:12:55;9.50;99.90
2647;DHT22;1333;50.958;6.770;2023-01-09T10:15:36;9.60;99.90
2647;DHT22;1333;50.958;6.770;2023-01-09T10:20:51;9.60;99.90
2647;DHT22;1333;50.958;6.770;2023-01-09T10:23:43;9.80;99.90
2647;DHT22;1333;50.958;6.770;2023-01-09T10:26:20;9.80;99.90
2647;DHT22;1333;50.958;6.770;2023-01-09T10:35:01;9.90;99.90
2647;DHT22;1333;50.958;6.770;2023-01-09T10:37:43;10.00;99.90
2647;DHT22;1333;50.958;6.770;2023-01-09T10:42:59;10.00;99.90
2647;DHT22;1333;50.958;6.770;2023-01-09T10:45:50;9.90;99.90
2647;DHT22;1333;50.958;6.770;2023-01-09T10:48:24;9.90;99.90
2647;DHT22;1333;50.958;6.770;2023-01-09T10:50:54;10.00;99.90
2647;DHT22;1333;50.958;6.770;2023-01-09T10:53:29;10.20;99.90
2647;DHT22;1333;50.958;6.770;2023-01-09T10:56:17;10.40;99.90
2647;DHT22;1333;50.958;6.770;2023-01-09T10:58:45;10.20;99.90
2647;DHT22;1333;50.958;6.770;2023-01-09T11:01:11;10.30;99.90
2647;DHT22;1333;50.958;6.770;2023-01-09T11:03:36;10.40;99.90
2647;DHT22;1333;50.958;6.770;2023-01-09T11:06:04;10.40;99.90
2647;DHT22;1333;50.958;6.770;2023-01-09T11:08:40;10.40;99.90
2647;DHT22;1333;50.958;6.770;2023-01-09T11:11:08;10.30;99.90
2647;DHT22;1333;50.958;6.770;2023-01-09T11:13:35;10.00;99.90
2647;DHT22;1333;50.958;6.770;2023-01-09T11:16:06;9.90;99.90
2647;DHT22;1333;50.958;6.770;2023-01-09T11:18:34;9.90;99.90
2647;DHT22;1333;50.958;6.770;2023-01-09T11:26:42;10.00;99.90
2647;DHT22;1333;50.958;6.770;2023-01-09T11:29:13;10.00;99.90
2647;DHT22;1333;50.958;6.770;2023-01-09T11:31:40;10.00;99.90
2647;DHT22;1333;50.958;6.770;2023-01-09T11:34:18;10.10;99.90
2647;DHT22;1333;50.958;6.770;2023-01-09T11:36:45;10.10;99.90
2647;DHT22;1333;50.958;6.770;2023-01-09T11:39:23;10.20;99.90
2647;DHT22;1333;50.958;6.770;2023-01-09T11:42:04;10.00;99.90
2647;DHT22;1333;50.958;6.770;2023-01-09T11:44:31;10.00;99.90
2647;DHT22;1333;50.958;6.770;2023-01-09T11:46:57;10.00;99.90
2647;DHT22;1333;50.958;6.770;2023-01-09T11:49:29;9.80;99.90
2647;DHT22;1333;50.958;6.770;2023-01-09T11:52:15;9.70;99.90
2647;DHT22;1333;50.958;6.770;2023-01-09T11:54:54;9.80;99.90
2647;DHT22;1333;50.958;6.770;2023-01-09T11:57:21;9.60;99.90
2647;DHT22;1333;50.958;6.770;2023-01-09T11:59:48;9.60;99.90
2647;DHT22;1333;50.958;6.770;2023-01-09T12:05:18;9.70;99.90
2647;DHT22;1333;50.958;6.770;2023-01-09T12:10:44;9.90;99.90
2647;DHT22;1333;50.958;6.770;2023-01-09T12:13:24;9.90;99.90
2647;DHT22;1333;50.958;6.770;2023-01-09T12:16:24;9.90;99.90
2647;DHT22;1333;50.958;6.770;2023-01-09T12:21:25;10.20;99.90
2647;DHT22;1333;50.958;6.770;2023-01-09T12:32:40;9.80;99.90
2647;DHT22;1333;50.958;6.770;2023-01-09T12:35:32;9.90;99.90
2647;DHT22;1333;50.958;6.770;2023-01-09T12:38:20;9.80;99.90
2647;DHT22;1333;50.958;6.770;2023-01-09T12:52:42;10.50;99.90
2647;DHT22;1333;50.958;6.770;2023-01-09T12:55:32;10.50;99.90
2647;DHT22;1333;50.958;6.770;2023-01-09T12:58:02;10.70;99.90
2647;DHT22;1333;50.958;6.770;2023-01-09T13:00:40;10.80;99.90
2647;DHT22;1333;50.958;6.770;2023-01-09T13:03:16;10.80;99.90
2647;DHT22;1333;50.958;6.770;2023-01-09T13:05:49;10.60;99.90
2647;DHT22;1333;50.958;6.770;2023-01-09T13:08:47;10.70;99.90
2647;DHT22;1333;50.958;6.770;2023-01-09T13:11:23;11.10;99.90
2647;DHT22;1333;50.958;6.770;2023-01-09T13:13:57;11.00;99.90
2647;DHT22;1333;50.958;6.770;2023-01-09T13:16:31;11.00;99.90
2647;DHT22;1333;50.958;6.770;2023-01-09T13:19:17;11.00;99.90
2647;DHT22;1333;50.958;6.770;2023-01-09T13:21:45;10.90;99.90
2647;DHT22;1333;50.958;6.770;2023-01-09T13:24:29;10.80;99.90
2647;DHT22;1333;50.958;6.770;2023-01-09T13:27:01;10.50;99.90
2647;DHT22;1333;50.958;6.770;2023-01-09T13:29:37;10.50;99.90
2647;DHT22;1333;50.958;6.770;2023-01-09T13:32:28;10.50;99.90
2647;DHT22;1333;50.958;6.770;2023-01-09T13:34:57;10.80;99.90
2647;DHT22;1333;50.958;6.770;2023-01-09T13:37:33;10.90;99.90
2647;DHT22;1333;50.958;6.770;2023-01-09T13:40:26;10.80;99.90
2647;DHT22;1333;50.958;6.770;2023-01-09T13:43:09;10.80;99.90
2647;DHT22;1333;50.958;6.770;2023-01-09T13:45:35;10.70;99.90
2647;DHT22;1333;50.958;6.770;2023-01-09T13:50:40;10.20;99.90
2647;DHT22;1333;50.958;6.770;2023-01-09T13:58:26;9.50;99.90
2647;DHT22;1333;50.958;6.770;2023-01-09T14:00:54;9.60;99.90
2647;DHT22;1333;50.958;6.770;2023-01-09T14:03:37;9.70;99.90
2647;DHT22;1333;50.958;6.770;2023-01-09T14:06:11;9.70;99.90
2647;DHT22;1333;50.958;6.770;2023-01-09T14:08:38;9.70;99.90
2647;DHT22;1333;50.958;6.770;2023-01-09T14:11:06;9.60;99.90
2647;DHT22;1333;50.958;6.770;2023-01-09T14:13:42;9.40;99.90
2647;DHT22;1333;50.958;6.770;2023-01-09T14:16:21;9.30;99.90
2647;DHT22;1333;50.958;6.770;2023-01-09T14:18:53;9.30;99.90
2647;DHT22;1333;50.958;6.770;2023-01-09T14:21:22;9.30;99.90
2647;DHT22;1333;50.958;6.770;2023-01-09T14:24:03;9.30;99.90
2647;DHT22;1333;50.958;6.770;2023-01-09T14:26:50;9.20;99.90
2647;DHT22;1333;50.958;6.770;2023-01-09T14:29:38;9.20;99.90
2647;DHT22;1333;50.958;6.770;2023-01-09T14:35:09;9.00;99.90
2647;DHT22;1333;50.958;6.770;2023-01-09T14:37:37;9.00;99.90
2647;DHT22;1333;50.958;6.770;2023-01-09T14:40:05;9.10;99.90
2647;DHT22;1333;50.958;6.770;2023-01-09T14:42:31;9.00;99.90
2647;DHT22;1333;50.958;6.770;2023-01-09T14:45:03;8.90;99.90
2647;DHT22;1333;50.958;6.770;2023-01-09T14:50:17;8.80;99.90
2647;DHT22;1333;50.958;6.770;2023-01-09T14:53:06;8.80;99.90
2647;DHT22;1333;50.958;6.770;2023-01-09T14:55:57;8.80;99.90
2647;DHT22;1333;50.958;6.770;2023-01-09T14:58:30;8.60;99.90
2647;DHT22;1333;50.958;6.770;2023-01-09T15:06:03;8.70;99.90
2647;DHT22;1333;50.958;6.770;2023-01-09T15:08:29;8.60;99.90
2647;DHT22;1333;50.958;6.770;2023-01-09T15:10:57;8.80;99.90
2647;DHT22;1333;50.958;6.770;2023-01-09T15:13:31;8.80;99.90
2647;DHT22;1333;50.958;6.770;2023-01-09T15:15:59;8.70;99.90
2647;DHT22;1333;50.958;6.770;2023-01-09T15:18:28;8.60;99.90
2647;DHT22;1333;50.958;6.770;2023-01-09T15:21:00;8.60;99.90
2647;DHT22;1333;50.958;6.770;2023-01-09T15:23:28;8.60;99.90
2647;DHT22;1333;50.958;6.770;2023-01-09T15:26:39;8.60;99.90
2647;DHT22;1333;50.958;6.770;2023-01-09T15:28:42;8.60;99.90
2647;DHT22;1333;50.958;6.770;2023-01-09T15:31:15;8.60;99.90
2647;DHT22;1333;50.958;6.770;2023-01-09T15:33:44;8.50;99.90
2647;DHT22;1333;50.958;6.770;2023-01-09T15:36:19;8.40;99.90
2647;DHT22;1333;50.958;6.770;2023-01-09T15:38:47;8.30;99.90
2647;DHT22;1333;50.958;6.770;2023-01-09T15:41:18;8.20;99.90
2647;DHT22;1333;50.958;6.770;2023-01-09T15:44:29;8.20;99.90
2647;DHT22;1333;50.958;6.770;2023-01-09T15:47:01;8.10;99.90
2647;DHT22;1333;50.958;6.770;2023-01-09T15:49:28;8.10;99.90
2647;DHT22;1333;50.958;6.770;2023-01-09T15:51:55;8.10;99.90
2647;DHT22;1333;50.958;6.770;2023-01-09T15:54:31;8.00;99.90
2647;DHT22;1333;50.958;6.770;2023-01-09T15:59:52;7.90;99.90
2647;DHT22;1333;50.958;6.770;2023-01-09T16:02:19;7.90;99.90
2647;DHT22;1333;50.958;6.770;2023-01-09T16:05:05;7.90;99.90
2647;DHT22;1333;50.958;6.770;2023-01-09T16:07:32;7.90;99.90
2647;DHT22;1333;50.958;6.770;2023-01-09T16:09:58;7.90;99.90
2647;DHT22;1333;50.958;6.770;2023-01-09T16:12:26;7.90;99.90
2647;DHT22;1333;50.958;6.770;2023-01-09T16:14:57;7.90;99.90
2647;DHT22;1333;50.958;6.770;2023-01-09T16:17:24;7.80;99.90
2647;DHT22;1333;50.958;6.770;2023-01-09T16:24:46;7.80;99.90
2647;DHT22;1333;50.958;6.770;2023-01-09T16:29:46;7.70;99.90
2647;DHT22;1333;50.958;6.770;2023-01-09T16:32:19;7.60;99.90
2647;DHT22;1333;50.958;6.770;2023-01-09T16:34:51;7.60;99.90
2647;DHT22;1333;50.958;6.770;2023-01-09T16:37:17;7.60;99.90
2647;DHT22;1333;50.958;6.770;2023-01-09T16:42:45;7.50;99.90
2647;DHT22;1333;50.958;6.770;2023-01-09T16:45:28;7.40;99.90
2647;DHT22;1333;50.958;6.770;2023-01-09T16:47:55;7.30;99.90
2647;DHT22;1333;50.958;6.770;2023-01-09T16:50:22;7.30;99.90
2647;DHT22;1333;50.958;6.770;2023-01-09T16:52:49;7.20;99.90
2647;DHT22;1333;50.958;6.770;2023-01-09T16:55:15;7.20;99.90
2647;DHT22;1333;50.958;6.770;2023-01-09T16:57:40;7.10;99.90
2647;DHT22;1333;50.958;6.770;2023-01-09T17:00:27;7.10;99.90
2647;DHT22;1333;50.958;6.770;2023-01-09T17:02:52;7.00;99.90
2647;DHT22;1333;50.958;6.770;2023-01-09T17:05:18;6.90;99.90
2647;DHT22;1333;50.958;6.770;2023-01-09T17:07:43;6.90;99.90
2647;DHT22;1333;50.958;6.770;2023-01-09T17:10:18;6.90;99.90
2647;DHT22;1333;50.958;6.770;2023-01-09T17:12:44;6.80;99.90
2647;DHT22;1333;50.958;6.770;2023-01-09T17:15:09;6.80;99.90
2647;DHT22;1333;50.958;6.770;2023-01-09T17:17:35;6.80;99.90
2647;DHT22;1333;50.958;6.770;2023-01-09T17:20:00;6.70;99.90
2647;DHT22;1333;50.958;6.770;2023-01-09T17:22:26;6.70;99.90
2647;DHT22;1333;50.958;6.770;2023-01-09T17:24:51;6.60;99.90
2647;DHT22;1333;50.958;6.770;2023-01-09T17:27:36;6.60;99.90
2647;DHT22;1333;50.958;6.770;2023-01-09T17:30:21;6.60;99.90
2647;DHT22;1333;50.958;6.770;2023-01-09T17:32:47;6.50;99.90
2647;DHT22;1333;50.958;6.770;2023-01-09T17:35:14;6.60;99.90
2647;DHT22;1333;50.958;6.770;2023-01-09T17:37:40;6.60;99.90
2647;DHT22;1333;50.958;6.770;2023-01-09T17:42:42;6.70;99.90
2647;DHT22;1333;50.958;6.770;2023-01-09T17:45:09;6.70;99.90
2647;DHT22;1333;50.958;6.770;2023-01-09T17:47:34;6.80;99.90
2647;DHT22;1333;50.958;6.770;2023-01-09T17:50:00;6.80;99.90
2647;DHT22;1333;50.958;6.770;2023-01-09T17:52:25;6.80;99.90
2647;DHT22;1333;50.958;6.770;2023-01-09T17:54:51;6.80;99.90
2647;DHT22;1333;50.958;6.770;2023-01-09T17:57:16;6.80;99.90
2647;DHT22;1333;50.958;6.770;2023-01-09T17:59:42;6.70;99.90
2647;DHT22;1333;50.958;6.770;2023-01-09T18:02:18;6.70;99.90
2647;DHT22;1333;50.958;6.770;2023-01-09T18:04:44;6.70;99.90
2647;DHT22;1333;50.958;6.770;2023-01-09T18:07:14;6.70;99.90
2647;DHT22;1333;50.958;6.770;2023-01-09T18:09:41;6.70;99.90
2647;DHT22;1333;50.958;6.770;2023-01-09T18:12:06;6.60;99.90
2647;DHT22;1333;50.958;6.770;2023-01-09T18:14:32;6.70;99.90
2647;DHT22;1333;50.958;6.770;2023-01-09T18:16:57;6.70;99.90
2647;DHT22;1333;50.958;6.770;2023-01-09T18:19:23;6.70;99.90
2647;DHT22;1333;50.958;6.770;2023-01-09T18:21:48;6.70;99.90
2647;DHT22;1333;50.958;6.770;2023-01-09T18:24:15;6.80;99.90
2647;DHT22;1333;50.958;6.770;2023-01-09T18:26:41;6.80;99.90
2647;DHT22;1333;50.958;6.770;2023-01-09T18:29:06;6.90;99.90
2647;DHT22;1333;50.958;6.770;2023-01-09T18:31:32;6.90;99.90
2647;DHT22;1333;50.958;6.770;2023-01-09T18:33:58;7.00;99.90
2647;DHT22;1333;50.958;6.770;2023-01-09T18:36:27;7.00;99.90
2647;DHT22;1333;50.958;6.770;2023-01-09T18:38:57;7.00;99.90
2647;DHT22;1333;50.958;6.770;2023-01-09T18:41:24;7.10;99.90
2647;DHT22;1333;50.958;6.770;2023-01-09T18:43:51;7.10;99.90
2647;DHT22;1333;50.958;6.770;2023-01-09T18:46:17;7.10;99.90
2647;DHT22;1333;50.958;6.770;2023-01-09T18:48:56;7.10;99.90
2647;DHT22;1333;50.958;6.770;2023-01-09T18:51:24;7.20;99.90
2647;DHT22;1333;50.958;6.770;2023-01-09T18:53:51;7.20;99.90